ADDS TAF Data INFO
IDs: Format: Raw Decoded Include METARs

Data at: 2234 UTC 30 Apr 2016

Region: TOP
KATL 302142Z 3022/0124 17012G20KT P6SM VCSH BKN050
  TEMPO 3022/3023 VRB20G30KT 3SM TSRA BKN040CB
  FM010000 17008KT 5SM -TSRA BR BKN030CB
  FM010400 17005KT P6SM SCT060 BKN250
  FM010900 21006KT P6SM BKN015
  FM011400 23009KT P6SM VCSH BKN025
  FM011700 23010KT 6SM -SHRA BKN035
  PROB30 0118/0122 3SM TSRA BR BKN025CB


KBOS 302028Z 3020/0124 11012KT P6SM FEW060
  FM010000 15006KT P6SM SKC
  FM010600 19004KT P6SM BKN100
  FM011500 15006KT P6SM VCSH OVC050
  FM012000 14007KT 6SM -RA OVC050


KBWI 302057Z 3021/0124 13005KT P6SM OVC025
  FM302200 13007KT P6SM OVC040
  FM010300 13010KT P6SM -RA OVC020
  FM010600 13008KT P6SM -RA OVC010
  FM011200 13007KT 2SM -RA BR OVC003
  FM012100 13006KT 3SM -SHRA OVC008


KCLE 302205Z 3022/0124 08010KT 6SM -RA OVC060
  TEMPO 3022/3024 4SM -RA BR OVC035
  FM010000 10010KT 3SM -RA BR OVC015
  FM010500 14012KT 3SM -RA BR OVC008
  FM011300 20010KT 6SM BR OVC012


KCLT 302215Z 3022/0118 06007KT P6SM VCTS SCT027 BKN035CB
  TEMPO 3022/0101 VRB10G20KT 4SM -TSRAGS OVC020CB
  FM010100 11010KT 4SM -SHRA OVC007
  FM010600 15011KT 3SM BR VCSH OVC003
  FM011100 18009KT P6SM OVC005
  FM011500 19009KT P6SM OVC020


KCVG 302217Z 3022/0124 14010KT P6SM VCSH OVC008
  FM010000 17010KT 4SM BR VCTS BKN015CB
  TEMPO 0103/0107 2SM SHRA BR OVC008
  FM010700 18006KT 4SM BR OVC007
  FM011400 24005KT P6SM BKN015
  FM011800 23006KT P6SM BKN035


KDCA 302054Z 3021/0118 11005KT P6SM OVC025
  FM302300 12007KT P6SM OVC040
  FM010100 12008KT P6SM OVC025
  FM010300 13009KT P6SM -RA OVC010
  FM010900 13005KT P6SM -RA OVC008
  FM011200 13007KT 3SM -RA BR OVC008
  FM011400 16007KT 3SM -RA BR OVC003


KDEN 302202Z 3022/0124 35017KT 3SM -SN BR BKN005 OVC015
  TEMPO 3022/3023 1SM -SN BR BKN005
  FM302300 34015KT P6SM -SN SCT015 OVC025
  TEMPO 3023/3024 4SM -SNRA BKN012
  FM010000 36017G27KT P6SM VCSH SCT010 OVC020
  TEMPO 0100/0102 2SM -SN BR FEW007 OVC010
  FM010600 34008KT P6SM SCT004 OVC010
  FM011200 03005KT 3SM -SN BR SCT008 OVC015
  FM011800 06012KT P6SM VCSH SCT015 OVC025


KDFW 302104Z 3021/0124 33009KT P6SM SCT025 BKN100
  FM010600 03008KT P6SM SCT250
  FM011400 02014KT P6SM OVC100


KDTW 302008Z 3020/0124 09011KT 6SM -RA OVC080
  TEMPO 3020/3022 4SM -RA OVC060
  FM302200 09011KT 4SM -RA OVC040
  FM010000 07009KT 3SM -RA BR OVC012
  FM010200 04009KT 3SM -RA BR OVC007
  TEMPO 0102/0105 1 1/2SM RA BR OVC005
  FM010800 01008KT 4SM BR OVC008
  FM011500 35008KT P6SM OVC015


KEWR 301938Z 3020/0124 15006KT P6SM SCT050
  FM302200 16006KT P6SM SCT150
  FM010600 13004KT P6SM OVC090
  FM011000 10006KT P6SM -RA OVC090
  FM011400 10008KT 3SM -RA OVC030
  FM011700 10009KT 2SM -RA OVC015


KFLL 302101Z 3021/0118 09011KT P6SM SCT030 BKN250
  FM011300 12014G20KT P6SM SCT030 SCT250


KIAD 302054Z 3021/0124 15007KT P6SM OVC025
  FM010000 13007KT P6SM -RA OVC025
  FM010300 13009KT P6SM -RA OVC008
  FM011200 14010KT 2SM -RA BR OVC003
  FM011800 18007KT 3SM -SHRA OVC008
  FM012100 18007KT P6SM -SHRA OVC008


KIAH 302106Z 3021/0124 11005KT P6SM FEW040 BKN250
  FM010300 09005KT P6SM SCT015
  FM010900 05007KT P6SM SCT007 BKN015
  FM011500 10008KT P6SM BKN025
  FM011800 12008KT P6SM SCT025 BKN050
  FM012100 12008KT P6SM VCSH SCT035 BKN050


KJFK 301938Z 3020/0124 18012KT P6SM SCT050
  FM302100 18008KT P6SM SCT200
  FM010900 12006KT P6SM OVC100
  FM011100 11008KT P6SM -RA OVC060
  FM011500 10010KT 3SM -RA OVC040
  FM011800 10011KT 2SM -RA OVC020
  FM012200 06014KT 2SM -RA OVC008


KLAS 302140Z 3022/0118 35010KT P6SM VCSH FEW020 BKN050 BKN090
  TEMPO 3023/0102 5SM SHRA BR FEW020 BKN030 OVC050
  FM010200 05008KT P6SM VCSH BKN040 OVC080
  FM010500 02007KT P6SM SCT100 BKN250


KLAX 302034Z 3021/0124 25015G20KT P6SM SCT040
  FM010300 25008KT P6SM SCT050
  FM010600 23005KT P6SM SCT025
  FM011000 11006KT P6SM OVC025
  FM011600 14009KT P6SM SCT025 OVC030
  FM012000 17009KT P6SM BKN035
  FM012200 24010KT P6SM SCT035


KLGA 301938Z 3020/0118 18010KT P6SM SCT050
  FM302100 17009KT P6SM SCT100
  FM010200 17006KT P6SM BKN250
  FM010900 11006KT P6SM OVC070
  FM011100 10006KT P6SM -RA OVC060
  FM011500 10009KT 4SM -RA OVC040


KMCO 302108Z 3021/0118 10014KT P6SM FEW040 FEW050 BKN250
  FM010200 12004KT P6SM BKN250
  FM011400 14008KT P6SM FEW040 BKN250


KMDW 302106Z 3021/0118 07013G19KT 2SM RA BR OVC006
  FM010000 05012KT 2SM -RADZ BR OVC005
  FM010600 04012KT 2SM -DZ BR OVC003
  FM011100 03010KT 4SM BR VCSH OVC007


KMEM 302047Z 3021/0118 17010KT P6SM SCT050
  FM010100 17005KT P6SM SCT050
  FM010600 17005KT P6SM VCTS SCT035CB BKN150
  FM010900 19005KT P6SM OVC012
  FM011500 20007KT P6SM BKN020


KMIA 302101Z 3021/0118 10011G18KT P6SM SCT035 BKN250
  FM010100 11010KT P6SM FEW030 BKN250
  FM011400 12013G19KT P6SM SCT030 SCT250


KMSP 302107Z 3021/0124 08017G26KT P6SM SCT050 OVC120
  FM302300 05016G22KT P6SM VCSH BKN045 OVC100
  FM010400 04011KT P6SM BKN040 BKN120
  FM011400 03013G19KT P6SM FEW040 SCT250


KORD 302106Z 3021/0124 07013G19KT 3SM RA BR OVC006
  FM010000 05012KT 2SM -RADZ BR OVC005
  FM010600 04012KT 2SM -DZ BR OVC003
  FM011100 03010KT 4SM BR VCSH OVC007
  FM012000 01010G16KT P6SM VCSH BKN010 OVC018


KPDX 302100Z 3021/0118 VRB03KT P6SM SKC
  FM302200 32009G16KT P6SM SKC
  FM010400 32005KT P6SM SKC
  FM011200 00000KT P6SM FEW250


KPHL 302059Z 3021/0124 13005KT P6SM OVC045
  FM010600 11005KT P6SM -RA OVC035
  FM010800 09009KT 5SM -RA SCT009 OVC025
  FM011300 12010KT 2SM RA BR OVC009
  FM012200 06008KT 4SM -SHRA BR OVC025


KPHX 302039Z 3021/0118 18012G25KT P6SM VCSH BKN100 BKN140
  TEMPO 3021/3022 23015G24KT
  FM302200 28017G28KT P6SM VCTS BKN080CB OVC100
  FM010300 26010KT P6SM VCSH BKN090
  FM010600 11008KT P6SM BKN080


KPIT 302056Z 3021/0124 14003KT P6SM -RA OVC080
  FM010000 12005KT 3SM -RA BR OVC025
  FM010500 14007KT 4SM -RA OVC007
  FM011200 20006KT P6SM -SHRA OVC012
  FM011500 23007KT P6SM VCSH BKN035


KSAN 301950Z 3020/0124 21011KT P6SM SCT030
  TEMPO 3020/3022 BKN030
  FM010300 18006KT P6SM BKN025
  FM011700 20006KT P6SM SCT030


KSEA 302108Z 3021/0124 35012KT P6SM SCT250
  FM010600 03006KT P6SM SKC
  FM012000 35012KT P6SM SKC


KSFO 302059Z 3021/0124 28022G29KT P6SM SKC
  FM010400 28011G18KT P6SM SKC
  FM010700 28008KT P6SM SKC
  FM010900 VRB03KT P6SM SKC
  FM011700 08004KT P6SM SKC
  FM012100 34007KT P6SM SKC


KSLC 302052Z 3021/0124 34010KT P6SM SCT060 BKN100
  FM010300 15005KT P6SM BKN100
  FM011700 33010KT P6SM SCT060 SCT120


KSTL 302207Z 3022/0124 19010KT P6SM SCT035 BKN250
  TEMPO 3023/0101 3SM TSRA OVC020CB
  FM010300 25005KT P6SM SCT040
  FM010600 27003KT 5SM BR SCT060
  FM011500 29009KT P6SM BKN040


KTPA 302111Z 3021/0118 22008KT P6SM SCT050 OVC250
  FM010200 13005KT P6SM SCT040
  FM011400 16007KT P6SM FEW030 SCT250